Latest Coastal Weather Observations for Green Cape

IDN60701

Issued at 4:15 pm EST Sunday 20 April 2014 (issued every 10 minutes, with the page automatically refreshed every 10 minutes)

About coastal observations | Map of coastal stations | Coastal observations for NSW | Marine services | Other Formats
Station Details ID: 069137 Name: GREEN CAPE AWS Lat: -37.26 Lon: 150.05 Height: 19.4 m
Data from the previous 72 hours. | See also: Recent months at Green Cape
Date/Time
EST
Temp

°C
Wind Pressure Rain
since 9am
mm
Weather Cloud Vis
km
Sea
Height
m
Swell
Dir
 
Speed
knots
Gust
knots
hPa Trend Height
m
Period
s
Dir
20/04:00pm 17.1 S 14 17 1015.7 - 0.0 - - - - - - -
20/03:30pm 17.8 S 14 17 1015.5 - 0.0 - - - - - - -
20/03:00pm 18.6 S 8 13 1015.6 - 0.0 - - - - - - -
20/02:30pm 20.4 S 8 11 1015.3 - 0.0 - - - - - - -
20/02:00pm 18.9 S 6 8 1015.2 - 0.0 - - - - - - -
20/01:30pm 20.2 SSE 4 7 1015.4 - 0.0 - - - - - - -
20/01:00pm 19.5 ESE 4 5 1015.5 - 0.0 - - - - - - -
20/12:30pm 20.3 SE 2 6 1015.8 - 0.0 - - - - - - -
20/12:00pm 20.1 SE 2 3 1016.4 - 0.0 - - - - - - -
20/11:30am 19.3 SSE 3 5 1016.9 - 0.0 - - - - - - -
20/11:00am 18.0 SSW 4 5 1017.1 - 0.0 - - - - - - -
20/10:30am 17.6 SW 4 5 1017.3 - 0.0 - - - - - - -
20/10:00am 16.3 W 6 7 1017.4 - 0.0 - - - - - - -
20/09:30am 15.3 W 8 9 1017.3 - 0.0 - - - - - - -
20/09:00am 14.6 W 9 10 1017.5 - 0.0 - - - - - - -
20/08:30am 13.8 W 10 11 1017.6 - 0.0 - - - - - - -
20/08:00am 13.3 W 10 12 1017.5 - 0.0 - - - - - - -
20/07:30am 12.8 W 9 11 1017.3 - 0.0 - - - - - - -
20/07:00am 12.4 W 8 10 1017.0 - 0.0 - - - - - - -
20/06:30am 12.6 W 7 10 1016.5 - 0.0 - - - - - - -
20/06:00am 12.7 W 7 10 1016.4 - 0.0 - - - - - - -
20/05:30am 12.7 W 9 11 1016.2 - 0.0 - - - - - - -
20/05:00am 12.7 W 11 13 1016.4 - 0.0 - - - - - - -
20/04:30am 12.8 W 11 14 1016.3 - 0.0 - - - - - - -
20/04:00am 13.0 W 12 13 1016.3 - 0.0 - - - - - - -
20/03:30am 12.8 W 13 15 1016.3 - 0.0 - - - - - - -
20/03:00am 12.9 W 14 16 1016.3 - 0.0 - - - - - - -
20/02:30am 13.1 W 14 16 1016.5 - 0.0 - - - - - - -
20/02:00am 13.3 W 11 14 1016.8 - 0.0 - - - - - - -
20/01:30am 12.9 WNW 9 14 1017.1 - 0.0 - - - - - - -
20/01:00am 12.9 WNW 7 10 1017.2 - 0.0 - - - - - - -
20/12:30am 13.4 W 13 15 1017.3 - 0.0 - - - - - - -
20/12:00am 13.6 WNW 11 14 1017.5 - 0.0 - - - - - - -
 
Date/Time
EST
Temp

°C
Wind Pressure Rain
since 9am
mm
Weather Cloud Vis
km
Sea
Height
m
Swell
Dir
 
Speed
knots
Gust
knots
hPa Trend Height
m
Period
s
Dir
19/11:30pm 13.7 WNW 11 15 1017.6 - 0.0 - - - - - - -
19/11:00pm 14.4 W 12 15 1017.5 - 0.0 - - - - - - -
19/10:30pm 14.6 W 13 16 1017.7 - 0.0 - - - - - - -
19/10:00pm 14.4 W 12 16 1017.8 - 0.0 - - - - - - -
19/09:30pm 14.6 W 15 18 1017.9 - 0.0 - - - - - - -
19/09:00pm 14.7 WSW 16 19 1017.8 - 0.0 - - - - - - -
19/08:30pm 14.7 WSW 14 19 1017.8 - 0.0 - - - - - - -
19/08:00pm 14.6 WSW 15 20 1017.6 - 0.0 - - - - - - -
19/07:30pm 14.8 WSW 14 17 1017.3 - 0.0 - - - - - - -
19/07:00pm 15.0 WSW 14 18 1017.3 - 0.0 - - - - - - -
19/06:30pm 14.9 WSW 17 22 1017.1 - 0.0 - - - - - - -
19/06:00pm 15.2 WSW 18 22 1016.7 - 0.0 - - - - - - -
19/05:30pm 15.4 WSW 16 20 1016.5 - 0.0 - - - - - - -
19/05:00pm 15.7 SW 16 23 1016.2 - 0.0 - - - - - - -
19/04:30pm 15.7 SW 15 21 1016.3 - 0.0 - - - - - - -
19/04:00pm 16.2 SW 13 19 1016.1 - 0.0 - - - - - - -
19/03:30pm 16.5 SW 10 14 1016.1 - 0.0 - - - - - - -
19/03:00pm 15.3 SW 14 18 1016.0 - 0.0 - - - - - - -
19/02:50pm 14.8 WSW 16 17 1016.1 - 0.0 - - - - - - -
19/02:30pm 15.5 SSW 21 26 1015.8 - 0.0 - - - - - - -
19/02:00pm 16.1 SSW 17 19 1015.7 - 0.0 - - - - - - -
19/01:30pm 16.0 WSW 16 22 1015.7 - 0.0 - - - - - - -
19/01:00pm 15.2 WSW 16 21 1015.8 - 0.0 - - - - - - -
19/12:45pm 14.7 SW 22 24 1016.1 - 0.0 - - - - - - -
19/12:30pm 15.3 W 20 28 1016.2 - 0.0 - - - - - - -
19/12:00pm 15.5 WSW 20 23 1016.2 - 0.0 - - - - - - -
19/11:40am 14.5 W 20 30 1016.6 - 0.0 - - - - - - -
19/11:30am 15.3 WSW 21 31 1016.4 - 0.0 - - - - - - -
19/11:25am 15.9 WSW 17 29 1016.5 - 0.0 - - - - - - -
19/11:00am 15.9 WSW 18 25 1016.6 - 0.0 - - - - - - -
19/10:30am 15.5 WSW 18 24 1016.8 - 0.0 - - - - - - -
19/10:00am 15.4 WSW 20 25 1016.6 - 0.0 - - - - - - -
19/09:30am 14.9 W 22 29 1016.5 - 0.0 - - - - - - -
19/09:00am 14.6 W 21 27 1016.6 - 1.2 - - - - - - -
19/08:30am 14.4 WSW 21 27 1016.5 - 1.2 - - - - - - -
19/08:00am 14.6 WSW 22 27 1016.0 - 1.2 - - - - - - -
19/07:30am 14.1 WSW 22 28 1015.9 - 1.2 - - - - - - -
19/07:15am 14.0 WSW 21 32 1015.6 - 1.2 - - - - - - -
19/07:00am 14.1 W 22 27 1015.4 - 1.2 - - - - - - -
19/06:30am 14.1 WSW 23 29 1015.3 - 1.2 - - - - - - -
19/06:00am 14.3 WSW 21 27 1015.0 - 1.2 - - - - - - -
19/05:30am 13.9 W 25 30 1014.6 - 1.2 - - - - - - -
19/05:00am 13.9 WSW 24 31 1014.7 - 1.2 - - - - - - -
19/04:30am 14.2 WSW 22 28 1014.6 - 1.2 - - - - - - -
19/04:00am 14.1 WSW 21 27 1014.6 - 1.2 - - - - - - -
19/03:30am 13.9 W 23 29 1014.3 - 1.2 - - - - - - -
19/03:00am 14.2 WSW 21 27 1014.5 - 1.2 - - - - - - -
19/02:30am 14.0 WSW 25 33 1014.2 - 1.2 - - - - - - -
19/02:00am 14.3 WSW 24 31 1014.6 - 1.2 - - - - - - -
19/01:30am 14.4 WSW 25 33 1014.6 - 1.2 - - - - - - -
19/01:00am 14.4 WSW 25 33 1014.4 - 1.2 - - - - - - -
19/12:30am 14.5 WSW 26 32 1014.5 - 1.2 - - - - - - -
19/12:00am 14.6 WSW 27 34 1014.1 - 1.2 - - - - - - -
 
Date/Time
EST
Temp

°C
Wind Pressure Rain
since 9am
mm
Weather Cloud Vis
km
Sea
Height
m
Swell
Dir
 
Speed
knots
Gust
knots
hPa Trend Height
m
Period
s
Dir
18/11:30pm 14.8 WSW 29 38 1014.1 - 1.2 - - - - - - -
18/11:00pm 14.7 WSW 26 33 1014.5 - 1.2 - - - - - - -
18/10:30pm 14.9 WSW 25 32 1014.3 - 1.2 - - - - - - -
18/10:01pm 15.4 WSW 25 35 1014.4 - 1.2 - - - - - - -
18/10:00pm 15.4 WSW 26 35 1014.4 - 1.2 - - - - - - -
18/09:30pm 15.1 WSW 26 35 1014.1 - 1.2 - - - - - - -
18/09:00pm 15.6 WSW 30 36 1013.6 - 1.2 - - - - - - -
18/08:30pm 15.7 WSW 26 32 1013.7 - 1.2 - - - - - - -
18/08:16pm 15.4 WSW 26 37 1013.5 - 1.2 - - - - - - -
18/08:00pm 15.9 WSW 25 33 1013.8 - 1.2 - - - - - - -
18/07:30pm 15.6 WSW 24 30 1013.7 - 1.2 - - - - - - -
18/07:00pm 15.4 WSW 26 31 1013.4 - 1.2 - - - - - - -
18/06:30pm 15.6 WSW 24 34 1013.0 - 1.2 - - - - - - -
18/06:00pm 15.4 WSW 21 28 1013.3 - 1.2 - - - - - - -
18/05:30pm 16.2 WSW 24 29 1013.1 - 1.2 - - - - - - -
18/05:00pm 16.7 WSW 28 38 1012.2 - 1.2 - - - - - - -
18/04:54pm 16.5 WSW 26 38 1011.8 - 1.2 - - - - - - -
18/04:30pm 17.4 SW 32 41 1011.1 - 0.2 - - - - - - -
18/04:19pm 19.2 SSW 33 40 1010.0 - 0.0 - - - - - - -
18/04:17pm 20.2 SSW 16 27 1010.5 - 0.0 - - - - - - -
18/04:00pm 20.8 W 5 6 1010.3 - 0.0 - - - - - - -
18/03:30pm 21.4 W 4 7 1010.1 - 0.0 - - - - - - -
18/03:00pm 21.4 WNW 4 7 1010.2 - 0.0 - - - - - - -
18/02:30pm 22.3 WNW 5 7 1010.4 - 0.0 - - - - - - -
18/02:00pm 21.6 WSW 4 7 1010.7 - 0.0 - - - - - - -
18/01:30pm 22.1 W 3 4 1011.1 - 0.0 - - - - - - -
18/01:00pm 21.6 WNW 3 5 1011.3 - 0.0 - - - - - - -
18/12:30pm 21.7 W 4 6 1011.7 - 0.0 - - - - - - -
18/12:00pm 22.5 WNW 5 7 1012.4 - 0.0 - - - - - - -
18/11:30am 22.4 N 1 4 1012.9 - 0.0 - - - - - - -
18/11:00am 20.1 WNW 3 5 1013.3 - 0.0 - - - - - - -
18/10:30am 19.0 W 5 7 1013.6 - 0.0 - - - - - - -
18/10:00am 17.8 W 8 9 1014.0 - 0.0 - - - - - - -
18/09:30am 17.0 W 8 9 1014.3 - 0.0 - - - - - - -
18/09:00am 16.3 W 9 10 1014.5 - 0.0 - - - - - - -
18/08:30am 15.5 W 11 13 1014.7 - 0.0 - - - - - - -
18/08:00am 14.7 W 9 11 1014.8 - 0.0 - - - - - - -
18/07:30am 14.3 W 10 11 1014.9 - 0.0 - - - - - - -
18/07:00am 13.7 W 11 12 1014.9 - 0.0 - - - - - - -
18/06:30am 13.5 W 12 13 1015.0 - 0.0 - - - - - - -
18/06:00am 13.3 W 11 12 1014.9 - 0.0 - - - - - - -
18/05:30am 13.4 W 8 10 1015.2 - 0.0 - - - - - - -
18/05:00am 13.6 W 9 10 1015.5 - 0.0 - - - - - - -
18/04:30am 14.2 W 8 10 1015.7 - 0.0 - - - - - - -
18/04:00am 14.0 W 9 11 1015.9 - 0.0 - - - - - - -
18/03:30am 13.9 W 10 12 1016.0 - 0.0 - - - - - - -
18/03:00am 14.2 W 9 10 1016.3 - 0.0 - - - - - - -
18/02:30am 14.3 W 7 9 1016.6 - 0.0 - - - - - - -
18/02:00am 14.4 W 7 8 1016.9 - 0.0 - - - - - - -
18/01:30am 14.6 W 8 10 1017.2 - 0.0 - - - - - - -
18/01:00am 14.8 W 7 9 1017.5 - 0.0 - - - - - - -
18/12:30am 14.8 W 9 10 1017.8 - 0.0 - - - - - - -
18/12:00am 14.7 W 8 9 1018.1 - 0.0 - - - - - - -
 
Date/Time
EST
Temp

°C
Wind Pressure Rain
since 9am
mm
Weather Cloud Vis
km
Sea
Height
m
Swell
Dir
 
Speed
knots
Gust
knots
hPa Trend Height
m
Period
s
Dir
17/11:30pm 15.3 W 8 11 1018.4 - 0.0 - - - - - - -
17/11:00pm 15.5 W 8 10 1018.8 - 0.0 - - - - - - -
17/10:30pm 15.7 W 7 8 1019.0 - 0.0 - - - - - - -
17/10:00pm 15.7 W 7 8 1019.3 - 0.0 - - - - - - -
17/09:30pm 15.7 W 7 9 1019.4 - 0.0 - - - - - - -
17/09:00pm 15.8 W 8 9 1019.4 - 0.0 - - - - - - -
17/08:30pm 16.0 W 8 9 1019.5 - 0.0 - - - - - - -
17/08:00pm 16.6 W 7 9 1019.5 - 0.0 - - - - - - -
17/07:30pm 17.6 SSW 9 11 1019.3 - 0.0 - - - - - - -
17/07:00pm 17.6 SSW 9 11 1019.0 - 0.0 - - - - - - -
17/06:30pm 17.7 SSW 11 13 1018.9 - 0.0 - - - - - - -
17/06:00pm 17.9 SSW 11 13 1018.9 - 0.0 - - - - - - -
17/05:30pm 17.9 S 12 15 1018.9 - 0.0 - - - - - - -
17/05:00pm 18.2 S 12 14 1019.1 - 0.0 - - - - - - -
17/04:30pm 18.6 S 14 16 1019.0 - 0.0 - - - - - - -

Other Formats:

Comma delimited format used in spreadsheet applications
http://www.bom.gov.au/fwo/IDN60701/IDN60701.94934.axf

JavaScript Object Notation format (JSON) in row-major order
http://www.bom.gov.au/fwo/IDN60701/IDN60701.94934.json